Time;durP1;ratioP1;P1;durP2;ratioP2;P2;SDS_P1;SDS_P2;PMS_P1;PMS_P2;Temp;Humidity;BMP_temperature;BMP_pressure;BME280_temperature;BME280_humidity;BME280_pressure;Samples;Min_cycle;Max_cycle;Signal;HPM_P1;HPM_P2
2024/03/03 00:00:12;;;;;;;27.55;22.55;;;;;;;8.27;80.62;96800.22;4971348;28;20019;-76
2024/03/03 00:02:37;;;;;;;27.88;23.33;;;;;;;8.26;80.82;96790.53;4941427;28;20046;-75
2024/03/03 00:05:03;;;;;;;27.23;22.77;;;;;;;8.23;80.43;96798.28;4951146;28;20023;-74
2024/03/03 00:07:28;;;;;;;28.65;24.10;;;;;;;8.42;80.13;96806.69;4973146;28;20047;-75
2024/03/03 00:09:54;;;;;;;30.55;24.33;;;;;;;8.24;80.40;96803.38;4972847;28;20116;-74
2024/03/03 00:12:19;;;;;;;28.50;23.08;;;;;;;8.18;80.41;96812.50;4956779;28;20057;-75
2024/03/03 00:14:44;;;;;;;30.90;25.17;;;;;;;8.18;80.48;96814.34;4951848;28;20114;-75
2024/03/03 00:17:12;;;;;;;29.70;23.83;;;;;;;8.15;80.43;96802.28;4952491;28;20038;-76
2024/03/03 00:19:40;;;;;;;30.00;23.95;;;;;;;8.42;81.29;96822.78;4971515;28;20018;-75
2024/03/03 00:22:05;;;;;;;28.30;23.73;;;;;;;8.50;80.51;96831.09;4956110;28;20035;-75
2024/03/03 00:24:30;;;;;;;28.40;24.25;;;;;;;8.42;80.88;96809.38;4955895;28;20501;-75
2024/03/03 00:26:56;;;;;;;28.35;24.17;;;;;;;8.50;80.12;96816.88;4954139;28;20042;-75
2024/03/03 00:29:21;;;;;;;29.60;23.98;;;;;;;8.52;80.31;96806.72;4940663;28;20030;-75
2024/03/03 00:31:46;;;;;;;28.00;22.70;;;;;;;8.65;79.62;96823.13;4938747;28;20474;-75
2024/03/03 00:34:12;;;;;;;29.23;23.55;;;;;;;8.50;80.13;96798.09;4947393;28;20037;-75
2024/03/03 00:36:37;;;;;;;28.65;24.30;;;;;;;8.60;80.13;96809.69;4946492;28;20037;-75
2024/03/03 00:39:06;;;;;;;31.92;24.63;;;;;;;8.61;79.18;96805.91;4953256;28;20086;-75
2024/03/03 00:41:31;;;;;;;30.77;25.10;;;;;;;8.67;79.41;96814.78;4963554;28;20027;-74
2024/03/03 00:43:57;;;;;;;29.60;23.45;;;;;;;8.61;79.21;96810.50;4952012;28;20534;-75
2024/03/03 00:46:22;;;;;;;32.60;25.35;;;;;;;8.61;79.48;96805.13;4956702;28;20046;-75
2024/03/03 00:48:48;;;;;;;29.40;24.50;;;;;;;8.64;79.24;96820.66;4969084;28;20023;-75
2024/03/03 00:51:13;;;;;;;32.05;24.30;;;;;;;8.62;79.07;96826.31;4967479;28;20038;-75
2024/03/03 00:53:38;;;;;;;31.08;24.90;;;;;;;8.54;79.33;96801.91;4966451;28;20463;-76
2024/03/03 00:56:05;;;;;;;31.90;25.52;;;;;;;8.55;79.57;96801.63;4936977;28;20042;-76
2024/03/03 00:58:30;;;;;;;32.53;25.08;;;;;;;8.64;79.56;96820.66;4940948;28;20038;-76
2024/03/03 01:00:56;;;;;;;29.15;24.05;;;;;;;8.68;79.50;96821.78;4953591;28;20038;-76
2024/03/03 01:03:21;;;;;;;31.27;25.30;;;;;;;8.53;79.44;96789.53;4971700;28;20463;-76
2024/03/03 01:05:47;;;;;;;32.13;25.33;;;;;;;8.45;80.12;96784.72;4952877;28;20043;-76
2024/03/03 01:08:13;;;;;;;32.72;25.40;;;;;;;8.46;79.14;96786.31;4972556;28;20026;-76
2024/03/03 01:10:39;;;;;;;30.98;24.35;;;;;;;8.54;79.25;96799.22;4948668;28;20614;-76
2024/03/03 01:13:04;;;;;;;31.27;25.35;;;;;;;8.45;79.13;96784.72;4936628;29;20376;-76
2024/03/03 01:15:30;;;;;;;30.70;24.83;;;;;;;8.58;79.55;96813.69;4961054;28;20032;-76
2024/03/03 01:17:55;;;;;;;31.52;25.65;;;;;;;8.50;79.17;96798.91;4954560;28;20031;-76
2024/03/03 01:20:21;;;;;;;32.17;26.48;;;;;;;8.51;79.18;96800.53;4956105;28;20073;-76
2024/03/03 01:22:46;;;;;;;31.08;25.50;;;;;;;8.45;78.84;96804.28;4951270;28;20031;-75
2024/03/03 01:25:12;;;;;;;34.15;26.58;;;;;;;8.44;79.49;96799.19;4955713;28;20094;-75
2024/03/03 01:27:37;;;;;;;33.00;26.15;;;;;;;8.45;79.13;96816.91;4953292;28;20030;-75
2024/03/03 01:30:03;;;;;;;29.42;25.77;;;;;;;8.37;78.93;96803.97;4952019;28;20114;-75
2024/03/03 01:32:29;;;;;;;37.30;28.40;;;;;;;8.31;78.72;96806.66;4965635;28;20058;-75
2024/03/03 01:34:55;;;;;;;34.75;27.70;;;;;;;8.26;78.52;96819.25;4948848;28;20314;-75
2024/03/03 01:37:20;;;;;;;30.90;25.65;;;;;;;8.12;78.92;96802.78;4956348;28;20538;-75
2024/03/03 01:39:47;;;;;;;36.20;27.90;;;;;;;8.22;78.35;96829.66;4938344;28;20034;-75
2024/03/03 01:42:13;;;;;;;37.90;29.48;;;;;;;8.15;78.60;96825.59;4964689;28;20026;-75
2024/03/03 01:44:40;;;;;;;39.22;29.55;;;;;;;8.02;78.43;96813.50;4933675;28;20061;-75
2024/03/03 01:47:05;;;;;;;43.22;31.70;;;;;;;7.84;77.53;96795.16;4937317;28;20031;-76
2024/03/03 01:49:34;;;;;;;38.25;29.67;;;;;;;7.85;77.67;96796.78;4971875;28;20118;-76
2024/03/03 01:52:04;;;;;;;35.90;27.77;;;;;;;7.67;78.95;96773.13;4951383;28;20027;-75
2024/03/03 01:54:32;;;;;;;35.85;28.23;;;;;;;7.79;78.24;96797.84;4972275;28;20047;-76
2024/03/03 01:56:58;;;;;;;34.22;26.80;;;;;;;7.68;78.58;96785.44;4952313;28;20030;-76
2024/03/03 01:59:24;;;;;;;35.08;28.08;;;;;;;7.59;79.30;96777.09;4946066;28;20042;-76
2024/03/03 02:01:50;;;;;;;37.78;28.77;;;;;;;7.50;79.41;96761.78;4959242;28;20030;-75
2024/03/03 02:04:15;;;;;;;36.88;27.92;;;;;;;7.45;80.16;96764.44;4940706;28;20534;-75
2024/03/03 02:06:42;;;;;;;40.35;30.55;;;;;;;7.51;79.95;96774.13;4943102;28;20031;-76
2024/03/03 02:09:08;;;;;;;35.13;28.70;;;;;;;7.49;80.67;96769.00;4942091;28;20474;-75
2024/03/03 02:11:34;;;;;;;40.22;30.75;;;;;;;7.44;80.72;96757.47;4952818;23;20042;-74
2024/03/03 02:13:59;;;;;;;35.88;29.40;;;;;;;7.63;81.17;96766.69;5000322;28;20038;-74
2024/03/03 02:16:25;;;;;;;38.85;30.52;;;;;;;7.61;81.01;96760.75;4975536;28;20398;-73
2024/03/03 02:18:51;;;;;;;39.97;30.65;;;;;;;7.63;81.71;96745.25;5000459;28;20037;-74
2024/03/03 02:21:22;;;;;;;34.80;29.52;;;;;;;7.66;81.76;96755.44;4984114;28;20027;-74
2024/03/03 02:23:47;;;;;;;37.72;30.55;;;;;;;7.65;81.53;96759.19;4984016;28;20044;-74
2024/03/03 02:26:18;;;;;;;37.08;30.88;;;;;;;7.51;81.27;96720.56;4983708;28;20052;-74
2024/03/03 02:28:44;;;;;;;37.47;29.63;;;;;;;7.66;82.33;96739.34;4998572;28;20031;-74
2024/03/03 02:31:09;;;;;;;37.95;28.65;;;;;;;7.68;82.17;96731.84;4981329;28;20022;-73
2024/03/03 02:33:35;;;;;;;38.47;29.98;;;;;;;7.79;82.18;96728.19;4985543;28;20073;-74
2024/03/03 02:36:00;;;;;;;38.05;30.60;;;;;;;7.73;81.94;96713.13;4998591;28;20448;-73
2024/03/03 02:38:26;;;;;;;40.35;29.88;;;;;;;7.91;82.20;96720.69;5014178;28;20042;-73
2024/03/03 02:40:51;;;;;;;41.50;30.58;;;;;;;7.89;82.11;96712.09;4965299;28;20025;-74
2024/03/03 02:43:16;;;;;;;35.65;28.60;;;;;;;7.91;82.45;96709.97;4992240;28;20043;-73
2024/03/03 02:45:42;;;;;;;38.10;29.23;;;;;;;8.10;81.87;96713.78;4981267;28;20018;-73
2024/03/03 02:48:07;;;;;;;36.03;27.80;;;;;;;8.05;81.72;96695.00;4980845;28;20041;-73
2024/03/03 02:50:33;;;;;;;36.17;28.48;;;;;;;8.21;81.38;96702.00;4975990;28;20065;-73
2024/03/03 02:53:05;;;;;;;33.22;25.92;;;;;;;8.20;81.36;96678.13;5016158;28;20093;-75
2024/03/03 02:55:31;;;;;;;33.67;26.63;;;;;;;8.08;80.59;96650.75;4996202;28;20026;-75
2024/03/03 02:57:57;;;;;;;33.38;27.70;;;;;;;8.32;80.43;96679.53;4990749;28;20057;-73
2024/03/03 03:00:22;;;;;;;37.70;27.70;;;;;;;8.23;80.29;96667.69;4997214;28;20030;-74
2024/03/03 03:02:48;;;;;;;35.97;27.48;;;;;;;7.85;79.63;96603.84;4987371;28;20142;-74
2024/03/03 03:05:13;;;;;;;35.88;28.70;;;;;;;7.98;80.24;96611.34;4998396;28;20049;-74
2024/03/03 03:07:39;;;;;;;35.88;27.85;;;;;;;8.14;79.19;96644.34;4997053;28;20037;-74
2024/03/03 03:10:05;;;;;;;34.28;27.73;;;;;;;8.27;79.68;96665.31;4975179;28;20114;-74
2024/03/03 03:12:30;;;;;;;38.35;29.60;;;;;;;8.16;79.51;96659.09;4988021;28;20393;-74
2024/03/03 03:14:55;;;;;;;35.83;28.63;;;;;;;8.08;79.84;96651.56;4994640;28;20043;-74
2024/03/03 03:17:21;;;;;;;33.45;28.48;;;;;;;8.10;79.46;96657.47;4978478;28;20053;-73
2024/03/03 03:19:46;;;;;;;36.13;29.08;;;;;;;8.15;79.74;96654.81;4980055;28;20040;-75
2024/03/03 03:22:12;;;;;;;35.00;27.95;;;;;;;8.00;79.29;96648.63;4978796;28;20034;-74
2024/03/03 03:24:37;;;;;;;36.13;28.98;;;;;;;8.11;80.27;96677.88;4989674;28;20037;-74
2024/03/03 03:27:04;;;;;;;37.55;29.08;;;;;;;7.96;79.15;96669.78;5016562;28;20026;-74
2024/03/03 03:29:29;;;;;;;35.70;28.25;;;;;;;7.94;79.92;96679.97;4997923;28;20049;-74
2024/03/03 03:31:55;;;;;;;35.08;28.23;;;;;;;8.07;79.54;96682.16;5021214;28;20022;-74
2024/03/03 03:34:20;;;;;;;37.47;28.52;;;;;;;8.11;79.70;96671.69;4984623;28;20039;-75
2024/03/03 03:36:46;;;;;;;34.38;28.45;;;;;;;7.98;79.06;96666.84;4996299;28;20112;-74
2024/03/03 03:39:14;;;;;;;35.45;28.70;;;;;;;7.63;79.56;96644.25;4985326;28;20066;-74
2024/03/03 03:41:48;;;;;;;36.28;28.35;;;;;;;7.79;78.52;96674.59;4990976;28;20022;-73
2024/03/03 03:44:15;;;;;;;35.53;29.30;;;;;;;7.67;79.06;96665.97;4995680;28;20109;-74
2024/03/03 03:46:41;;;;;;;35.47;29.10;;;;;;;7.73;79.42;96678.28;5002343;28;20022;-74
2024/03/03 03:49:11;;;;;;;32.38;27.20;;;;;;;7.62;79.61;96663.25;4982505;28;20141;-74
2024/03/03 03:51:37;;;;;;;36.00;28.08;;;;;;;7.61;80.58;96651.75;4997767;28;20441;-73
2024/03/03 03:54:03;;;;;;;36.28;28.17;;;;;;;7.64;79.94;96658.44;5005386;28;20076;-73
2024/03/03 03:56:30;;;;;;;34.90;28.35;;;;;;;7.59;80.35;96653.06;4980615;28;20030;-73
2024/03/03 03:58:55;;;;;;;36.83;29.60;;;;;;;7.66;80.58;96651.75;5000490;28;20038;-73
2024/03/03 04:01:21;;;;;;;40.67;30.48;;;;;;;7.78;80.65;96654.19;4982282;28;20018;-73
2024/03/03 04:03:46;;;;;;;37.78;29.38;;;;;;;7.87;80.09;96654.47;5003017;28;20037;-73
2024/03/03 04:06:12;;;;;;;36.85;29.20;;;;;;;7.63;79.76;96605.94;4989863;28;20500;-74
2024/03/03 04:08:41;;;;;;;37.47;28.58;;;;;;;7.75;80.18;96611.84;4992043;28;20113;-74
2024/03/03 04:11:07;;;;;;;34.53;28.05;;;;;;;8.13;79.59;96659.63;4981572;28;20022;-75
2024/03/03 04:13:33;;;;;;;34.97;27.20;;;;;;;7.98;79.51;96651.56;5006363;28;20588;-75
2024/03/03 04:15:58;;;;;;;35.15;28.10;;;;;;;8.05;78.73;96657.47;5013968;28;20046;-75
2024/03/03 04:18:23;;;;;;;33.60;27.08;;;;;;;7.94;79.21;96649.66;4993448;28;20035;-75
2024/03/03 04:20:49;;;;;;;34.00;26.05;;;;;;;8.00;79.21;96654.78;4997023;28;20027;-75
2024/03/03 04:23:17;;;;;;;32.33;27.05;;;;;;;8.10;79.50;96644.06;4982841;28;20064;-75
2024/03/03 04:25:42;;;;;;;33.55;26.65;;;;;;;8.19;78.71;96663.13;5015026;28;20054;-75
2024/03/03 04:28:10;;;;;;;34.90;27.15;;;;;;;8.13;78.83;96664.19;4978657;28;20049;-73
2024/03/03 04:30:36;;;;;;;37.17;27.77;;;;;;;8.06;79.01;96663.63;4978055;28;20022;-74
2024/03/03 04:33:01;;;;;;;34.92;28.02;;;;;;;7.97;78.20;96666.03;4975622;28;20044;-73
2024/03/03 04:35:27;;;;;;;37.53;27.65;;;;;;;7.89;78.96;96663.88;5012080;28;20033;-74
2024/03/03 04:37:52;;;;;;;33.30;28.23;;;;;;;7.82;78.40;96668.66;4994291;28;20053;-73
2024/03/03 04:40:18;;;;;;;36.13;29.13;;;;;;;7.86;78.35;96669.78;4974455;28;20105;-73
2024/03/03 04:42:45;;;;;;;38.42;29.85;;;;;;;7.84;78.33;96671.88;4960766;28;20042;-74
2024/03/03 04:45:10;;;;;;;34.80;29.05;;;;;;;7.59;79.64;96680.66;4991043;28;20033;-74
2024/03/03 04:47:36;;;;;;;36.83;29.27;;;;;;;7.55;80.17;96678.78;4985651;28;20256;-73
2024/03/03 04:50:01;;;;;;;38.78;30.13;;;;;;;7.60;79.42;96676.94;4998287;28;20029;-75
2024/03/03 04:52:27;;;;;;;41.33;30.88;;;;;;;7.37;80.78;96698.81;4988106;28;20399;-74
2024/03/03 04:54:52;;;;;;;39.92;31.33;;;;;;;7.14;81.45;96698.41;4981761;28;20029;-74
2024/03/03 04:57:18;;;;;;;49.70;38.28;;;;;;;7.01;81.45;96669.41;4995551;28;20129;-74
2024/03/03 04:59:43;;;;;;;48.85;37.95;;;;;;;7.08;81.30;96689.53;4994162;28;20103;-73
2024/03/03 05:02:09;;;;;;;50.85;39.72;;;;;;;7.14;82.15;96690.38;4995725;28;20085;-73
2024/03/03 05:04:34;;;;;;;44.63;36.53;;;;;;;7.44;82.83;96715.44;4984225;28;20560;-74
2024/03/03 05:07:00;;;;;;;46.88;36.25;;;;;;;7.50;82.38;96721.59;4982124;28;20042;-75
2024/03/03 05:09:25;;;;;;;44.20;34.50;;;;;;;7.35;82.28;96689.41;4980582;28;20061;-74
2024/03/03 05:11:50;;;;;;;45.47;35.05;;;;;;;7.61;82.12;96704.50;4978572;28;20038;-75
2024/03/03 05:14:16;;;;;;;46.40;35.92;;;;;;;7.59;81.96;96690.56;4994435;28;20030;-75
2024/03/03 05:16:41;;;;;;;48.28;36.72;;;;;;;7.72;81.44;96710.72;4993817;28;20383;-74
2024/03/03 05:19:08;;;;;;;45.45;36.35;;;;;;;7.60;81.33;96724.34;4976054;28;20026;-74
2024/03/03 05:21:34;;;;;;;46.78;36.42;;;;;;;7.64;80.94;96738.81;4985034;28;20521;-74
2024/03/03 05:24:01;;;;;;;47.08;36.80;;;;;;;7.46;81.28;96726.69;4984830;28;20026;-73
2024/03/03 05:26:26;;;;;;;50.38;37.03;;;;;;;7.37;80.35;96736.28;4991801;28;20061;-73
2024/03/03 05:28:52;;;;;;;44.22;34.63;;;;;;;7.40;81.32;96742.97;5014252;28;20509;-75
2024/03/03 05:31:17;;;;;;;49.55;38.08;;;;;;;7.29;80.88;96728.72;4992836;28;20070;-75
2024/03/03 05:33:43;;;;;;;49.20;37.08;;;;;;;7.41;80.53;96760.66;5001050;28;20030;-75
2024/03/03 05:36:11;;;;;;;48.63;37.13;;;;;;;7.17;81.76;96717.41;4974337;28;20031;-75
2024/03/03 05:38:40;;;;;;;44.65;36.88;;;;;;;7.32;81.92;96728.22;5010640;28;20332;-76
2024/03/03 05:41:15;;;;;;;52.90;38.95;;;;;;;7.42;82.36;96732.84;4995338;28;20061;-73
2024/03/03 05:43:40;;;;;;;47.45;37.63;;;;;;;7.51;82.48;96736.63;4994507;28;20034;-74
2024/03/03 05:46:06;;;;;;;46.70;36.38;;;;;;;7.58;82.92;96739.88;4999764;28;20038;-74
2024/03/03 05:48:31;;;;;;;45.88;35.83;;;;;;;7.59;82.32;96717.34;4993595;28;20395;-74
2024/03/03 05:50:56;;;;;;;47.55;36.00;;;;;;;7.69;82.14;96733.47;4989331;28;20033;-73
2024/03/03 05:53:22;;;;;;;44.70;35.85;;;;;;;7.70;82.56;96729.75;4986330;28;20061;-73
2024/03/03 05:55:47;;;;;;;47.55;35.90;;;;;;;7.75;82.24;96743.16;5007704;28;20027;-73
2024/03/03 05:58:13;;;;;;;47.67;35.67;;;;;;;7.84;82.10;96757.66;4976704;28;20107;-73
2024/03/03 06:00:38;;;;;;;42.45;34.92;;;;;;;7.73;81.72;96750.66;4977730;28;20026;-74
2024/03/03 06:03:03;;;;;;;45.25;36.67;;;;;;;7.87;81.33;96746.41;4994364;28;20528;-74
2024/03/03 06:05:29;;;;;;;44.17;34.17;;;;;;;7.84;81.96;96741.56;4962450;28;20038;-73
2024/03/03 06:07:54;;;;;;;43.38;35.75;;;;;;;7.81;81.44;96735.94;4993955;28;20049;-73
2024/03/03 06:10:20;;;;;;;46.95;35.75;;;;;;;7.89;81.14;96746.16;4979678;28;20074;-75
2024/03/03 06:12:46;;;;;;;49.33;35.75;;;;;;;7.76;81.13;96723.34;4976663;28;20121;-76
2024/03/03 06:15:11;;;;;;;46.38;35.03;;;;;;;7.92;81.46;96750.97;4990345;28;20023;-75
2024/03/03 06:17:47;;;;;;;44.55;35.65;;;;;;;7.95;81.46;96745.91;4989303;28;20462;-74
2024/03/03 06:20:56;;;;;;;47.13;35.33;;;;;;;7.53;80.70;96680.91;4988440;28;20038;-75
2024/03/03 06:23:25;;;;;;;45.67;34.55;;;;;;;7.97;81.33;96751.00;5014500;28;20046;-76
2024/03/03 06:25:50;;;;;;;46.85;35.60;;;;;;;7.88;81.43;96715.06;4998453;28;20022;-75
2024/03/03 06:28:19;;;;;;;44.33;34.22;;;;;;;7.86;81.32;96717.22;5007297;28;20062;-75
2024/03/03 06:30:45;;;;;;;45.33;32.78;;;;;;;7.90;80.84;96705.69;5010658;28;20095;-76
2024/03/03 06:33:10;;;;;;;40.75;32.40;;;;;;;7.97;81.31;96708.94;5015867;28;20034;-75
2024/03/03 06:35:36;;;;;;;44.03;34.00;;;;;;;7.94;80.69;96704.09;5024735;28;20026;-75
2024/03/03 06:38:02;;;;;;;42.97;32.47;;;;;;;8.02;80.96;96706.28;5002836;28;20093;-76
2024/03/03 06:40:27;;;;;;;41.92;34.10;;;;;;;7.91;80.77;96688.53;4994597;28;20029;-75
2024/03/03 06:42:52;;;;;;;41.97;32.40;;;;;;;7.94;80.38;96679.97;4985242;28;20038;-75
2024/03/03 06:45:18;;;;;;;41.22;32.00;;;;;;;8.17;80.38;96708.97;5003744;28;20042;-75
2024/03/03 06:47:43;;;;;;;43.40;32.15;;;;;;;8.25;80.22;96713.81;5001322;28;20044;-77
2024/03/03 06:50:09;;;;;;;41.88;33.55;;;;;;;7.92;80.11;96658.00;5001887;28;20022;-75
2024/03/03 06:52:34;;;;;;;45.33;33.78;;;;;;;8.19;79.64;96701.47;5000073;28;20383;-76
2024/03/03 06:55:00;;;;;;;41.38;31.98;;;;;;;8.32;80.05;96714.41;5003248;28;20030;-77
2024/03/03 06:57:26;;;;;;;38.38;30.85;;;;;;;8.32;79.58;96703.69;4968058;28;20042;-75
2024/03/03 06:59:52;;;;;;;43.83;31.83;;;;;;;8.44;79.68;96702.59;4999665;28;20022;-76
2024/03/03 07:02:18;;;;;;;39.28;30.58;;;;;;;8.35;78.92;96678.97;5002456;28;20054;-75
2024/03/03 07:04:44;;;;;;;36.92;28.58;;;;;;;8.10;79.08;96641.38;5000992;28;20027;-76
2024/03/03 07:07:09;;;;;;;36.35;30.05;;;;;;;8.19;79.21;96658.56;4984657;28;20038;-75
2024/03/03 07:09:36;;;;;;;36.80;28.38;;;;;;;8.29;78.99;96669.34;5003503;28;20462;-76
2024/03/03 07:12:03;;;;;;;40.50;30.20;;;;;;;8.34;79.11;96666.66;4980634;28;20030;-76
2024/03/03 07:14:29;;;;;;;37.22;29.73;;;;;;;8.27;79.14;96649.22;4976246;28;20046;-76
2024/03/03 07:16:54;;;;;;;34.03;27.95;;;;;;;8.68;79.60;96719.81;4969184;28;20034;-75
2024/03/03 07:19:19;;;;;;;32.45;26.02;;;;;;;8.72;79.08;96712.81;5021453;28;20046;-76
2024/03/03 07:21:45;;;;;;;34.03;27.50;;;;;;;8.90;78.52;96717.63;4975350;28;20030;-77
2024/03/03 07:24:12;;;;;;;34.70;27.92;;;;;;;8.85;79.20;96693.47;4973193;28;20081;-76
2024/03/03 07:26:37;;;;;;;36.33;27.27;;;;;;;9.09;77.95;96715.19;4984784;28;20045;-76
2024/03/03 07:29:03;;;;;;;30.92;25.73;;;;;;;8.86;77.88;96678.97;4995347;28;20026;-76
2024/03/03 07:31:29;;;;;;;30.30;24.17;;;;;;;8.93;78.02;96682.19;4997898;28;20518;-76
2024/03/03 07:33:56;;;;;;;32.05;25.98;;;;;;;9.17;77.53;96711.97;4992446;28;20026;-76
2024/03/03 07:36:21;;;;;;;28.48;23.05;;;;;;;9.15;76.95;96698.78;4993306;28;20038;-74
2024/03/03 07:38:47;;;;;;;30.48;24.80;;;;;;;9.23;77.47;96706.31;4989561;28;20167;-75
2024/03/03 07:41:12;;;;;;;31.60;23.88;;;;;;;9.37;76.38;96701.16;4976752;28;20066;-76
2024/03/03 07:43:38;;;;;;;31.55;25.42;;;;;;;9.36;76.61;96700.34;4980567;28;20076;-76
2024/03/03 07:46:03;;;;;;;28.23;23.02;;;;;;;9.49;76.94;96704.34;4988460;28;20458;-75
2024/03/03 07:48:29;;;;;;;28.98;23.48;;;;;;;9.49;75.98;96697.09;4989347;28;20026;-75
2024/03/03 07:50:54;;;;;;;31.00;23.20;;;;;;;9.61;75.87;96723.69;4991765;28;20062;-75
2024/03/03 07:53:20;;;;;;;28.35;23.00;;;;;;;9.59;75.25;96720.47;4970865;28;20117;-75
2024/03/03 07:55:46;;;;;;;31.17;24.02;;;;;;;9.65;75.16;96735.47;4992675;28;20417;-76
2024/03/03 07:58:12;;;;;;;31.92;24.25;;;;;;;9.65;75.25;96730.91;4981256;28;20023;-76
2024/03/03 08:00:38;;;;;;;32.78;24.30;;;;;;;9.64;74.76;96731.97;4951747;28;20043;-75
2024/03/03 08:03:05;;;;;;;31.25;25.20;;;;;;;9.63;75.17;96722.31;4992920;28;20104;-76
2024/03/03 08:05:34;;;;;;;32.05;24.42;;;;;;;9.65;75.08;96717.47;4964872;28;20085;-76
2024/03/03 08:08:01;;;;;;;28.90;23.48;;;;;;;9.71;74.59;96715.56;4992818;28;20030;-75
2024/03/03 08:10:26;;;;;;;28.80;23.40;;;;;;;9.73;74.74;96722.25;4990748;28;20094;-76
2024/03/03 08:12:53;;;;;;;30.33;23.45;;;;;;;9.75;74.42;96709.34;4977435;28;20034;-76
2024/03/03 08:15:18;;;;;;;27.80;23.40;;;;;;;9.84;74.55;96727.59;4990247;28;20062;-75
2024/03/03 08:17:44;;;;;;;30.17;23.92;;;;;;;9.90;74.71;96721.13;4993237;28;20030;-76
2024/03/03 08:20:12;;;;;;;26.23;22.80;;;;;;;9.86;74.18;96725.44;4982917;28;20420;-76
2024/03/03 08:22:38;;;;;;;27.73;22.33;;;;;;;9.88;74.00;96713.34;4987717;28;20030;-76
2024/03/03 08:25:07;;;;;;;29.70;23.70;;;;;;;9.99;73.99;96735.63;4977020;28;20040;-76
2024/03/03 08:27:33;;;;;;;28.52;22.85;;;;;;;9.91;73.85;96701.22;4976639;28;20128;-76
2024/03/03 08:29:59;;;;;;;27.48;22.30;;;;;;;9.97;74.19;96714.38;4981581;28;20122;-75
2024/03/03 08:32:24;;;;;;;28.02;21.73;;;;;;;9.99;73.79;96712.19;4981913;28;20461;-76
2024/03/03 08:34:50;;;;;;;27.45;21.55;;;;;;;10.01;73.48;96701.97;4979718;28;20031;-77
2024/03/03 08:37:16;;;;;;;28.38;22.63;;;;;;;10.19;73.66;96724.78;4993532;28;20093;-76
2024/03/03 08:39:41;;;;;;;27.35;21.48;;;;;;;10.35;73.20;96727.09;5009119;28;20023;-76
2024/03/03 08:42:06;;;;;;;29.27;21.60;;;;;;;10.34;73.16;96709.34;4975851;28;20034;-76
2024/03/03 08:44:32;;;;;;;26.08;21.23;;;;;;;10.37;73.36;96694.53;4993984;28;20474;-76
2024/03/03 08:46:58;;;;;;;25.75;20.83;;;;;;;10.36;72.71;96682.97;4986793;28;20441;-76
2024/03/03 08:49:23;;;;;;;24.85;20.17;;;;;;;10.46;72.66;96687.47;4987806;28;20389;-76
2024/03/03 08:51:50;;;;;;;22.88;19.90;;;;;;;10.45;72.81;96675.09;4979399;28;20042;-76
2024/03/03 08:54:15;;;;;;;26.33;20.70;;;;;;;10.51;72.66;96673.97;4988255;28;20026;-76
2024/03/03 08:56:42;;;;;;;24.40;19.38;;;;;;;10.67;72.52;96688.09;4985001;28;20038;-75
2024/03/03 08:59:07;;;;;;;23.42;18.30;;;;;;;10.72;72.10;96690.75;4978372;28;20080;-76
2024/03/03 09:01:32;;;;;;;24.58;18.20;;;;;;;10.63;71.67;96671.72;4994961;28;20042;-76
2024/03/03 09:03:58;;;;;;;25.55;18.63;;;;;;;10.87;71.62;96696.84;4992438;28;20037;-76
2024/03/03 09:06:23;;;;;;;23.85;17.35;;;;;;;10.83;71.58;96698.47;4993919;28;20038;-76
2024/03/03 09:08:50;;;;;;;22.92;17.58;;;;;;;10.91;71.05;96689.78;4982631;28;20101;-77
2024/03/03 09:11:18;;;;;;;20.70;16.70;;;;;;;11.08;70.30;96684.00;4980650;28;20043;-77
2024/03/03 09:13:43;;;;;;;19.33;16.63;;;;;;;11.23;69.72;96702.69;4964088;28;20022;-77
2024/03/03 09:16:11;;;;;;;22.67;17.40;;;;;;;11.41;69.05;96714.66;4976731;28;20096;-77
2024/03/03 09:18:36;;;;;;;18.80;15.75;;;;;;;11.32;68.13;96674.03;4993435;28;20026;-77
2024/03/03 09:21:06;;;;;;;21.00;15.23;;;;;;;11.57;68.85;96698.03;4991950;28;20089;-77
2024/03/03 09:23:31;;;;;;;17.90;14.93;;;;;;;11.54;68.68;96681.59;4994976;28;20161;-76
2024/03/03 09:25:59;;;;;;;18.25;15.13;;;;;;;11.67;67.83;96691.69;4992563;28;20065;-76
2024/03/03 09:28:25;;;;;;;17.95;14.10;;;;;;;11.69;67.41;96667.97;4984020;28;20038;-76
2024/03/03 09:30:53;;;;;;;17.52;14.57;;;;;;;11.77;66.88;96670.03;4991925;28;20121;-76
2024/03/03 09:33:18;;;;;;;18.30;14.25;;;;;;;11.88;66.34;96689.59;4992156;28;20026;-76
2024/03/03 09:35:44;;;;;;;16.88;13.38;;;;;;;11.97;66.74;96682.47;4992161;28;20375;-76
2024/03/03 09:38:09;;;;;;;16.20;13.25;;;;;;;11.98;66.57;96682.16;4992287;28;20548;-76
2024/03/03 09:40:37;;;;;;;15.82;13.20;;;;;;;11.99;65.59;96667.59;4983975;28;20042;-76
2024/03/03 09:43:04;;;;;;;13.73;11.82;;;;;;;12.02;65.45;96672.38;4986869;28;20133;-76
2024/03/03 09:45:30;;;;;;;16.88;13.07;;;;;;;12.20;65.00;96690.50;4986068;28;20022;-76
2024/03/03 09:48:02;;;;;;;16.95;12.98;;;;;;;12.17;64.22;96672.19;4980912;28;20034;-76
2024/03/03 09:50:28;;;;;;;13.43;11.55;;;;;;;12.35;63.88;96692.97;4978998;28;20116;-76
2024/03/03 09:52:53;;;;;;;17.70;13.38;;;;;;;12.33;63.86;96683.56;5014874;28;20526;-77
2024/03/03 09:55:19;;;;;;;14.75;12.50;;;;;;;12.33;63.55;96673.56;4978408;28;20034;-76
2024/03/03 09:57:44;;;;;;;15.38;11.48;;;;;;;12.41;63.40;96674.81;4984657;28;20466;-76
2024/03/03 10:00:10;;;;;;;14.40;11.25;;;;;;;12.49;62.78;96672.25;4990713;28;20110;-76
2024/03/03 10:02:39;;;;;;;12.20;10.48;;;;;;;12.44;61.81;96655.31;5030758;28;20026;-76
2024/03/03 10:05:09;;;;;;;12.70;10.07;;;;;;;12.64;61.31;96678.50;5014463;28;20136;-76
2024/03/03 10:07:47;;;;;;;13.70;10.90;;;;;;;12.64;61.50;96673.91;4991727;28;20110;-76
2024/03/03 10:10:18;;;;;;;13.00;10.68;;;;;;;12.84;61.27;96689.78;5005638;28;20038;-76
2024/03/03 10:12:45;;;;;;;14.63;10.95;;;;;;;12.90;61.59;96685.09;4993556;28;20453;-77
2024/03/03 10:15:10;;;;;;;12.95;10.18;;;;;;;12.99;60.42;96680.63;4992032;28;20504;-76
2024/03/03 10:17:36;;;;;;;13.55;10.23;;;;;;;12.99;60.56;96673.31;4978950;28;20039;-76
2024/03/03 10:20:08;;;;;;;12.15;9.65;;;;;;;12.94;60.56;96661.78;4992277;28;20081;-77
2024/03/03 10:22:34;;;;;;;12.00;9.73;;;;;;;13.06;60.27;96672.97;4994817;28;20038;-76
2024/03/03 10:25:16;;;;;;;12.40;9.57;;;;;;;13.13;59.38;96670.66;4975770;28;20030;-76
2024/03/03 10:27:42;;;;;;;11.63;9.52;;;;;;;13.19;59.39;96669.47;4990170;28;20049;-76
2024/03/03 10:30:09;;;;;;;13.50;9.75;;;;;;;13.16;59.00;96651.16;5015750;28;20037;-76
2024/03/03 10:32:35;;;;;;;12.73;9.23;;;;;;;13.19;59.20;96647.84;4990040;28;20070;-77
2024/03/03 10:35:00;;;;;;;12.07;9.48;;;;;;;13.28;58.94;96651.44;4984072;28;20389;-76
2024/03/03 10:37:27;;;;;;;10.00;8.85;;;;;;;13.26;58.61;96637.44;4987497;28;20039;-75
2024/03/03 10:39:53;;;;;;;10.60;9.00;;;;;;;13.28;58.34;96634.44;4986826;28;20084;-76
2024/03/03 10:42:18;;;;;;;11.65;8.85;;;;;;;13.48;57.50;96656.50;4990841;28;20031;-76
2024/03/03 10:44:44;;;;;;;11.02;9.48;;;;;;;13.54;57.95;96655.28;4992294;28;20442;-76
2024/03/03 10:47:10;;;;;;;10.73;9.07;;;;;;;13.72;57.85;96665.19;4992539;28;20140;-76
2024/03/03 10:49:38;;;;;;;12.23;8.98;;;;;;;13.79;58.02;96662.88;4995325;28;20076;-77
2024/03/03 10:52:08;;;;;;;10.70;8.85;;;;;;;13.84;57.72;96648.44;4995309;28;20039;-76
2024/03/03 10:54:33;;;;;;;10.90;8.40;;;;;;;13.88;57.31;96643.22;4997285;28;20041;-76
2024/03/03 10:57:00;;;;;;;10.85;8.80;;;;;;;14.03;56.85;96651.00;4991974;28;20402;-76
2024/03/03 10:59:26;;;;;;;10.35;7.65;;;;;;;14.02;56.35;96633.19;4992859;28;20072;-76
2024/03/03 11:01:52;;;;;;;9.70;7.75;;;;;;;13.96;55.83;96631.69;4985701;28;20375;-76
2024/03/03 11:04:18;;;;;;;8.27;7.07;;;;;;;14.11;55.15;96632.16;4992758;28;20038;-76
2024/03/03 11:06:44;;;;;;;10.48;7.70;;;;;;;14.10;55.22;96635.16;4984482;28;20038;-77
2024/03/03 11:09:11;;;;;;;9.50;7.50;;;;;;;14.20;54.95;96640.34;4990974;28;20050;-76
2024/03/03 11:11:38;;;;;;;8.90;7.00;;;;;;;14.30;55.60;96640.16;4982641;28;20113;-76
2024/03/03 11:14:11;;;;;;;9.27;7.22;;;;;;;14.27;54.86;96602.81;4967784;28;20562;-76
2024/03/03 11:16:37;;;;;;;8.32;7.00;;;;;;;14.34;53.74;96608.66;4989075;28;20117;-76
2024/03/03 11:19:03;;;;;;;8.00;6.97;;;;;;;14.53;54.25;96639.88;4987640;28;20026;-76